sensor_id;sensor_type;location;lat;lon;timestamp;P1;durP1;ratioP1;P2;durP2;ratioP2
51036;SDS011;37064;59.346;18.058;2023-11-18T00:01:24;3.50;;;2.10;;
51036;SDS011;37064;59.346;18.058;2023-11-18T00:03:50;3.25;;;1.75;;
51036;SDS011;37064;59.346;18.058;2023-11-18T00:06:16;3.95;;;2.13;;
51036;SDS011;37064;59.346;18.058;2023-11-18T00:08:42;4.70;;;2.40;;
51036;SDS011;37064;59.346;18.058;2023-11-18T00:11:08;6.85;;;2.10;;
51036;SDS011;37064;59.346;18.058;2023-11-18T00:13:36;4.35;;;2.40;;
51036;SDS011;37064;59.346;18.058;2023-11-18T00:16:04;5.45;;;2.65;;
51036;SDS011;37064;59.346;18.058;2023-11-18T00:18:30;4.78;;;2.42;;
51036;SDS011;37064;59.346;18.058;2023-11-18T00:20:57;4.00;;;2.33;;
51036;SDS011;37064;59.346;18.058;2023-11-18T00:23:23;2.67;;;1.70;;
51036;SDS011;37064;59.346;18.058;2023-11-18T00:25:51;5.17;;;2.60;;
51036;SDS011;37064;59.346;18.058;2023-11-18T00:28:17;4.50;;;2.03;;
51036;SDS011;37064;59.346;18.058;2023-11-18T00:30:44;5.68;;;2.35;;
51036;SDS011;37064;59.346;18.058;2023-11-18T00:33:10;2.70;;;1.90;;
51036;SDS011;37064;59.346;18.058;2023-11-18T00:35:37;3.63;;;2.00;;
51036;SDS011;37064;59.346;18.058;2023-11-18T00:38:03;4.15;;;2.53;;
51036;SDS011;37064;59.346;18.058;2023-11-18T00:40:29;3.72;;;2.17;;
51036;SDS011;37064;59.346;18.058;2023-11-18T00:42:55;3.05;;;2.10;;
51036;SDS011;37064;59.346;18.058;2023-11-18T00:45:21;3.92;;;1.90;;
51036;SDS011;37064;59.346;18.058;2023-11-18T00:47:47;2.97;;;1.80;;
51036;SDS011;37064;59.346;18.058;2023-11-18T00:50:13;7.13;;;2.25;;
51036;SDS011;37064;59.346;18.058;2023-11-18T00:52:40;5.60;;;2.85;;
51036;SDS011;37064;59.346;18.058;2023-11-18T00:55:09;6.88;;;2.63;;
51036;SDS011;37064;59.346;18.058;2023-11-18T00:57:36;3.92;;;2.75;;
51036;SDS011;37064;59.346;18.058;2023-11-18T01:00:04;3.60;;;2.15;;
51036;SDS011;37064;59.346;18.058;2023-11-18T01:02:31;4.82;;;3.05;;
51036;SDS011;37064;59.346;18.058;2023-11-18T01:04:57;6.60;;;2.60;;
51036;SDS011;37064;59.346;18.058;2023-11-18T01:07:23;6.30;;;2.50;;
51036;SDS011;37064;59.346;18.058;2023-11-18T01:09:49;5.72;;;2.17;;
51036;SDS011;37064;59.346;18.058;2023-11-18T01:12:15;5.88;;;2.50;;
51036;SDS011;37064;59.346;18.058;2023-11-18T01:14:41;6.93;;;2.65;;
51036;SDS011;37064;59.346;18.058;2023-11-18T01:17:07;4.85;;;3.25;;
51036;SDS011;37064;59.346;18.058;2023-11-18T01:19:36;8.43;;;3.47;;
51036;SDS011;37064;59.346;18.058;2023-11-18T01:22:03;3.67;;;2.00;;
51036;SDS011;37064;59.346;18.058;2023-11-18T01:24:31;5.30;;;2.80;;
51036;SDS011;37064;59.346;18.058;2023-11-18T01:26:57;6.25;;;3.10;;
51036;SDS011;37064;59.346;18.058;2023-11-18T01:29:24;8.25;;;3.10;;
51036;SDS011;37064;59.346;18.058;2023-11-18T01:31:50;6.35;;;2.70;;
51036;SDS011;37064;59.346;18.058;2023-11-18T01:34:17;9.50;;;2.65;;
51036;SDS011;37064;59.346;18.058;2023-11-18T01:36:46;10.35;;;3.33;;
51036;SDS011;37064;59.346;18.058;2023-11-18T01:39:14;11.27;;;2.95;;
51036;SDS011;37064;59.346;18.058;2023-11-18T01:41:40;5.35;;;2.58;;
51036;SDS011;37064;59.346;18.058;2023-11-18T01:44:06;7.63;;;3.30;;
51036;SDS011;37064;59.346;18.058;2023-11-18T01:46:33;5.97;;;3.22;;
51036;SDS011;37064;59.346;18.058;2023-11-18T01:49:01;6.95;;;3.90;;
51036;SDS011;37064;59.346;18.058;2023-11-18T01:51:28;6.10;;;3.35;;
51036;SDS011;37064;59.346;18.058;2023-11-18T01:53:54;9.00;;;3.83;;
51036;SDS011;37064;59.346;18.058;2023-11-18T01:56:21;9.60;;;3.75;;
51036;SDS011;37064;59.346;18.058;2023-11-18T01:58:50;8.73;;;4.38;;
51036;SDS011;37064;59.346;18.058;2023-11-18T02:01:16;8.73;;;3.65;;
51036;SDS011;37064;59.346;18.058;2023-11-18T02:03:43;8.05;;;3.20;;
51036;SDS011;37064;59.346;18.058;2023-11-18T02:06:09;7.25;;;3.40;;
51036;SDS011;37064;59.346;18.058;2023-11-18T02:08:35;5.90;;;3.40;;
51036;SDS011;37064;59.346;18.058;2023-11-18T02:13:39;8.30;;;3.58;;
51036;SDS011;37064;59.346;18.058;2023-11-18T02:16:07;7.00;;;3.92;;
51036;SDS011;37064;59.346;18.058;2023-11-18T02:18:34;8.23;;;3.60;;
51036;SDS011;37064;59.346;18.058;2023-11-18T02:21:01;6.53;;;3.25;;
51036;SDS011;37064;59.346;18.058;2023-11-18T02:23:28;5.72;;;3.17;;
51036;SDS011;37064;59.346;18.058;2023-11-18T02:25:54;8.35;;;3.63;;
51036;SDS011;37064;59.346;18.058;2023-11-18T02:28:20;9.23;;;3.03;;
51036;SDS011;37064;59.346;18.058;2023-11-18T02:30:47;8.32;;;3.65;;
51036;SDS011;37064;59.346;18.058;2023-11-18T02:33:36;6.82;;;4.15;;
51036;SDS011;37064;59.346;18.058;2023-11-18T02:36:06;7.40;;;3.53;;
51036;SDS011;37064;59.346;18.058;2023-11-18T02:38:35;5.60;;;3.15;;
51036;SDS011;37064;59.346;18.058;2023-11-18T02:41:06;8.48;;;3.65;;
51036;SDS011;37064;59.346;18.058;2023-11-18T02:43:34;7.97;;;3.47;;
51036;SDS011;37064;59.346;18.058;2023-11-18T02:46:02;10.05;;;3.80;;
51036;SDS011;37064;59.346;18.058;2023-11-18T02:48:29;8.90;;;3.42;;
51036;SDS011;37064;59.346;18.058;2023-11-18T02:50:56;7.93;;;3.75;;
51036;SDS011;37064;59.346;18.058;2023-11-18T02:53:22;7.55;;;4.07;;
51036;SDS011;37064;59.346;18.058;2023-11-18T02:55:49;7.93;;;3.90;;
51036;SDS011;37064;59.346;18.058;2023-11-18T02:58:17;9.00;;;3.50;;
51036;SDS011;37064;59.346;18.058;2023-11-18T03:00:43;8.68;;;3.40;;
51036;SDS011;37064;59.346;18.058;2023-11-18T03:03:10;6.80;;;3.33;;
51036;SDS011;37064;59.346;18.058;2023-11-18T03:05:36;5.28;;;2.92;;
51036;SDS011;37064;59.346;18.058;2023-11-18T03:08:02;7.97;;;3.90;;
51036;SDS011;37064;59.346;18.058;2023-11-18T03:10:31;5.53;;;3.27;;
51036;SDS011;37064;59.346;18.058;2023-11-18T03:13:00;7.07;;;3.97;;
51036;SDS011;37064;59.346;18.058;2023-11-18T03:15:26;7.35;;;3.53;;
51036;SDS011;37064;59.346;18.058;2023-11-18T03:17:53;5.90;;;3.65;;
51036;SDS011;37064;59.346;18.058;2023-11-18T03:20:20;4.97;;;3.15;;
51036;SDS011;37064;59.346;18.058;2023-11-18T03:22:48;5.38;;;2.97;;
51036;SDS011;37064;59.346;18.058;2023-11-18T03:25:15;7.82;;;3.28;;
51036;SDS011;37064;59.346;18.058;2023-11-18T03:27:41;6.93;;;3.75;;
51036;SDS011;37064;59.346;18.058;2023-11-18T03:30:07;7.65;;;3.10;;
51036;SDS011;37064;59.346;18.058;2023-11-18T03:32:34;4.47;;;2.70;;
51036;SDS011;37064;59.346;18.058;2023-11-18T03:35:02;5.07;;;2.88;;
51036;SDS011;37064;59.346;18.058;2023-11-18T03:37:28;6.53;;;3.55;;
51036;SDS011;37064;59.346;18.058;2023-11-18T03:39:54;5.65;;;2.70;;
51036;SDS011;37064;59.346;18.058;2023-11-18T03:42:20;7.70;;;3.80;;
51036;SDS011;37064;59.346;18.058;2023-11-18T03:44:47;4.38;;;3.15;;
51036;SDS011;37064;59.346;18.058;2023-11-18T03:47:13;3.75;;;2.40;;
51036;SDS011;37064;59.346;18.058;2023-11-18T03:49:39;6.03;;;2.92;;
51036;SDS011;37064;59.346;18.058;2023-11-18T03:52:06;4.47;;;2.67;;
51036;SDS011;37064;59.346;18.058;2023-11-18T03:54:32;5.43;;;2.95;;
51036;SDS011;37064;59.346;18.058;2023-11-18T03:56:58;3.95;;;2.42;;
51036;SDS011;37064;59.346;18.058;2023-11-18T03:59:24;5.40;;;2.53;;
51036;SDS011;37064;59.346;18.058;2023-11-18T04:01:50;4.68;;;2.95;;
51036;SDS011;37064;59.346;18.058;2023-11-18T04:04:16;4.68;;;2.53;;
51036;SDS011;37064;59.346;18.058;2023-11-18T04:06:43;7.10;;;2.78;;
51036;SDS011;37064;59.346;18.058;2023-11-18T04:09:09;4.63;;;2.33;;
51036;SDS011;37064;59.346;18.058;2023-11-18T04:11:36;7.13;;;3.63;;
51036;SDS011;37064;59.346;18.058;2023-11-18T04:14:03;4.32;;;2.40;;
51036;SDS011;37064;59.346;18.058;2023-11-18T04:16:29;3.75;;;2.70;;
51036;SDS011;37064;59.346;18.058;2023-11-18T04:18:55;3.97;;;2.63;;
51036;SDS011;37064;59.346;18.058;2023-11-18T04:21:21;3.92;;;2.30;;
51036;SDS011;37064;59.346;18.058;2023-11-18T04:23:48;3.55;;;2.05;;
51036;SDS011;37064;59.346;18.058;2023-11-18T04:26:14;4.53;;;2.10;;
51036;SDS011;37064;59.346;18.058;2023-11-18T04:28:40;6.18;;;2.08;;
51036;SDS011;37064;59.346;18.058;2023-11-18T04:31:06;4.25;;;2.28;;
51036;SDS011;37064;59.346;18.058;2023-11-18T04:33:32;2.90;;;2.05;;
51036;SDS011;37064;59.346;18.058;2023-11-18T04:35:58;3.67;;;2.00;;
51036;SDS011;37064;59.346;18.058;2023-11-18T04:38:24;5.18;;;2.40;;
51036;SDS011;37064;59.346;18.058;2023-11-18T04:40:51;3.95;;;1.98;;
51036;SDS011;37064;59.346;18.058;2023-11-18T04:43:19;4.10;;;1.90;;
51036;SDS011;37064;59.346;18.058;2023-11-18T04:45:45;4.50;;;2.03;;
51036;SDS011;37064;59.346;18.058;2023-11-18T04:48:11;3.88;;;2.08;;
51036;SDS011;37064;59.346;18.058;2023-11-18T04:50:43;3.22;;;2.13;;
51036;SDS011;37064;59.346;18.058;2023-11-18T04:53:09;6.55;;;2.30;;
51036;SDS011;37064;59.346;18.058;2023-11-18T04:55:36;4.07;;;2.08;;
51036;SDS011;37064;59.346;18.058;2023-11-18T04:58:02;3.45;;;2.05;;
51036;SDS011;37064;59.346;18.058;2023-11-18T05:00:30;7.50;;;2.90;;
51036;SDS011;37064;59.346;18.058;2023-11-18T05:02:57;4.60;;;2.05;;
51036;SDS011;37064;59.346;18.058;2023-11-18T05:05:23;3.08;;;1.98;;
51036;SDS011;37064;59.346;18.058;2023-11-18T05:07:49;3.55;;;1.80;;
51036;SDS011;37064;59.346;18.058;2023-11-18T05:10:15;4.68;;;2.45;;
51036;SDS011;37064;59.346;18.058;2023-11-18T05:12:41;3.95;;;2.45;;
51036;SDS011;37064;59.346;18.058;2023-11-18T05:15:09;4.32;;;2.20;;
51036;SDS011;37064;59.346;18.058;2023-11-18T05:17:38;4.68;;;2.30;;
51036;SDS011;37064;59.346;18.058;2023-11-18T05:20:04;4.30;;;2.60;;
51036;SDS011;37064;59.346;18.058;2023-11-18T05:22:32;3.92;;;2.45;;
51036;SDS011;37064;59.346;18.058;2023-11-18T05:24:59;6.25;;;2.55;;
51036;SDS011;37064;59.346;18.058;2023-11-18T05:27:24;3.78;;;2.15;;
51036;SDS011;37064;59.346;18.058;2023-11-18T05:29:51;6.03;;;2.63;;
51036;SDS011;37064;59.346;18.058;2023-11-18T05:32:21;4.47;;;2.60;;
51036;SDS011;37064;59.346;18.058;2023-11-18T05:34:48;4.20;;;2.10;;
51036;SDS011;37064;59.346;18.058;2023-11-18T05:37:15;4.03;;;2.22;;
51036;SDS011;37064;59.346;18.058;2023-11-18T05:39:43;4.07;;;2.78;;
51036;SDS011;37064;59.346;18.058;2023-11-18T05:42:10;5.10;;;2.65;;
51036;SDS011;37064;59.346;18.058;2023-11-18T05:44:39;3.72;;;2.30;;
51036;SDS011;37064;59.346;18.058;2023-11-18T05:47:07;4.25;;;2.20;;
51036;SDS011;37064;59.346;18.058;2023-11-18T05:49:33;4.68;;;2.33;;
51036;SDS011;37064;59.346;18.058;2023-11-18T05:52:00;3.97;;;2.47;;
51036;SDS011;37064;59.346;18.058;2023-11-18T05:54:26;4.88;;;2.78;;
51036;SDS011;37064;59.346;18.058;2023-11-18T05:56:52;3.75;;;2.30;;
51036;SDS011;37064;59.346;18.058;2023-11-18T05:59:18;4.70;;;2.30;;
51036;SDS011;37064;59.346;18.058;2023-11-18T06:01:44;3.63;;;2.15;;
51036;SDS011;37064;59.346;18.058;2023-11-18T06:04:12;3.78;;;2.83;;
51036;SDS011;37064;59.346;18.058;2023-11-18T06:06:38;3.75;;;2.60;;
51036;SDS011;37064;59.346;18.058;2023-11-18T06:09:04;3.95;;;2.03;;
51036;SDS011;37064;59.346;18.058;2023-11-18T06:11:34;3.22;;;2.08;;
51036;SDS011;37064;59.346;18.058;2023-11-18T06:14:00;3.78;;;2.20;;
51036;SDS011;37064;59.346;18.058;2023-11-18T06:16:26;4.45;;;2.47;;
51036;SDS011;37064;59.346;18.058;2023-11-18T06:18:54;4.57;;;2.35;;
51036;SDS011;37064;59.346;18.058;2023-11-18T06:21:20;3.92;;;2.00;;
51036;SDS011;37064;59.346;18.058;2023-11-18T06:23:49;5.53;;;2.35;;
51036;SDS011;37064;59.346;18.058;2023-11-18T06:26:16;5.45;;;2.03;;
51036;SDS011;37064;59.346;18.058;2023-11-18T06:28:45;3.40;;;1.98;;
51036;SDS011;37064;59.346;18.058;2023-11-18T06:31:11;4.03;;;2.42;;
51036;SDS011;37064;59.346;18.058;2023-11-18T06:33:41;3.65;;;2.55;;
51036;SDS011;37064;59.346;18.058;2023-11-18T06:38:33;3.75;;;2.28;;
51036;SDS011;37064;59.346;18.058;2023-11-18T06:41:00;4.15;;;2.30;;
51036;SDS011;37064;59.346;18.058;2023-11-18T06:43:28;2.90;;;1.63;;
51036;SDS011;37064;59.346;18.058;2023-11-18T06:46:01;2.97;;;1.80;;
51036;SDS011;37064;59.346;18.058;2023-11-18T06:48:27;3.33;;;2.00;;
51036;SDS011;37064;59.346;18.058;2023-11-18T06:50:53;3.78;;;1.73;;
51036;SDS011;37064;59.346;18.058;2023-11-18T06:53:19;4.13;;;2.17;;
51036;SDS011;37064;59.346;18.058;2023-11-18T06:55:45;2.15;;;1.33;;
51036;SDS011;37064;59.346;18.058;2023-11-18T06:58:11;3.58;;;2.05;;
51036;SDS011;37064;59.346;18.058;2023-11-18T07:00:38;2.88;;;1.92;;
51036;SDS011;37064;59.346;18.058;2023-11-18T07:03:04;2.95;;;1.67;;
51036;SDS011;37064;59.346;18.058;2023-11-18T07:05:30;3.38;;;1.70;;
51036;SDS011;37064;59.346;18.058;2023-11-18T07:07:56;3.58;;;2.03;;
51036;SDS011;37064;59.346;18.058;2023-11-18T07:10:22;2.63;;;1.60;;
51036;SDS011;37064;59.346;18.058;2023-11-18T07:12:50;3.22;;;1.67;;
51036;SDS011;37064;59.346;18.058;2023-11-18T07:15:16;2.08;;;1.60;;
51036;SDS011;37064;59.346;18.058;2023-11-18T07:17:42;3.22;;;1.90;;
51036;SDS011;37064;59.346;18.058;2023-11-18T07:20:08;3.45;;;1.50;;
51036;SDS011;37064;59.346;18.058;2023-11-18T07:25:03;3.40;;;1.85;;
51036;SDS011;37064;59.346;18.058;2023-11-18T07:27:33;3.30;;;1.80;;
51036;SDS011;37064;59.346;18.058;2023-11-18T07:30:00;4.38;;;1.88;;
51036;SDS011;37064;59.346;18.058;2023-11-18T07:32:26;3.45;;;2.13;;
51036;SDS011;37064;59.346;18.058;2023-11-18T07:34:52;2.75;;;1.70;;
51036;SDS011;37064;59.346;18.058;2023-11-18T07:37:19;2.88;;;1.90;;
51036;SDS011;37064;59.346;18.058;2023-11-18T07:39:46;3.42;;;2.05;;
51036;SDS011;37064;59.346;18.058;2023-11-18T07:42:13;2.88;;;1.65;;
51036;SDS011;37064;59.346;18.058;2023-11-18T07:44:43;2.92;;;1.85;;
51036;SDS011;37064;59.346;18.058;2023-11-18T07:47:09;4.45;;;1.90;;
51036;SDS011;37064;59.346;18.058;2023-11-18T07:49:36;3.13;;;2.05;;
51036;SDS011;37064;59.346;18.058;2023-11-18T07:52:02;3.58;;;2.13;;
51036;SDS011;37064;59.346;18.058;2023-11-18T07:54:29;2.70;;;2.03;;
51036;SDS011;37064;59.346;18.058;2023-11-18T07:56:55;2.28;;;1.70;;
51036;SDS011;37064;59.346;18.058;2023-11-18T07:59:21;2.83;;;1.73;;
51036;SDS011;37064;59.346;18.058;2023-11-18T08:01:49;3.00;;;1.77;;
51036;SDS011;37064;59.346;18.058;2023-11-18T08:04:15;3.22;;;2.38;;
51036;SDS011;37064;59.346;18.058;2023-11-18T08:06:42;2.97;;;1.60;;
51036;SDS011;37064;59.346;18.058;2023-11-18T08:09:08;4.47;;;2.10;;
51036;SDS011;37064;59.346;18.058;2023-11-18T08:11:36;2.38;;;1.80;;
51036;SDS011;37064;59.346;18.058;2023-11-18T08:14:02;2.97;;;1.73;;
51036;SDS011;37064;59.346;18.058;2023-11-18T08:16:28;3.38;;;1.80;;
51036;SDS011;37064;59.346;18.058;2023-11-18T08:18:54;3.28;;;1.58;;
51036;SDS011;37064;59.346;18.058;2023-11-18T08:21:20;2.45;;;1.80;;
51036;SDS011;37064;59.346;18.058;2023-11-18T08:23:47;4.35;;;2.70;;
51036;SDS011;37064;59.346;18.058;2023-11-18T08:26:13;3.80;;;2.08;;
51036;SDS011;37064;59.346;18.058;2023-11-18T08:28:39;2.58;;;1.98;;
51036;SDS011;37064;59.346;18.058;2023-11-18T08:31:05;3.15;;;1.40;;
51036;SDS011;37064;59.346;18.058;2023-11-18T08:33:32;2.65;;;1.35;;
51036;SDS011;37064;59.346;18.058;2023-11-18T08:35:59;3.70;;;1.75;;
51036;SDS011;37064;59.346;18.058;2023-11-18T08:38:26;3.15;;;1.60;;
51036;SDS011;37064;59.346;18.058;2023-11-18T08:40:55;2.40;;;1.45;;
51036;SDS011;37064;59.346;18.058;2023-11-18T08:43:21;2.78;;;1.23;;
51036;SDS011;37064;59.346;18.058;2023-11-18T08:45:47;6.55;;;1.88;;
51036;SDS011;37064;59.346;18.058;2023-11-18T08:48:15;2.75;;;1.75;;
51036;SDS011;37064;59.346;18.058;2023-11-18T08:50:43;2.70;;;1.67;;
51036;SDS011;37064;59.346;18.058;2023-11-18T08:53:09;4.28;;;1.83;;
51036;SDS011;37064;59.346;18.058;2023-11-18T08:55:37;2.60;;;1.40;;
51036;SDS011;37064;59.346;18.058;2023-11-18T08:58:15;10.05;;;4.95;;
51036;SDS011;37064;59.346;18.058;2023-11-18T09:00:47;7.88;;;3.00;;
51036;SDS011;37064;59.346;18.058;2023-11-18T09:06:00;3.08;;;2.13;;
51036;SDS011;37064;59.346;18.058;2023-11-18T09:08:32;2.17;;;1.40;;
51036;SDS011;37064;59.346;18.058;2023-11-18T09:13:32;3.67;;;1.65;;
51036;SDS011;37064;59.346;18.058;2023-11-18T09:16:03;4.60;;;1.65;;
51036;SDS011;37064;59.346;18.058;2023-11-18T09:18:33;1.58;;;1.40;;
51036;SDS011;37064;59.346;18.058;2023-11-18T09:21:00;2.33;;;1.60;;
51036;SDS011;37064;59.346;18.058;2023-11-18T09:23:26;2.17;;;1.55;;
51036;SDS011;37064;59.346;18.058;2023-11-18T09:25:53;2.95;;;1.75;;
51036;SDS011;37064;59.346;18.058;2023-11-18T09:28:20;4.72;;;1.75;;
51036;SDS011;37064;59.346;18.058;2023-11-18T09:30:46;2.63;;;1.63;;
51036;SDS011;37064;59.346;18.058;2023-11-18T09:33:18;2.67;;;1.42;;
51036;SDS011;37064;59.346;18.058;2023-11-18T09:35:53;3.80;;;1.63;;
51036;SDS011;37064;59.346;18.058;2023-11-18T09:38:23;1.70;;;1.38;;
51036;SDS011;37064;59.346;18.058;2023-11-18T09:40:50;2.15;;;1.35;;
51036;SDS011;37064;59.346;18.058;2023-11-18T09:43:18;2.35;;;1.35;;
51036;SDS011;37064;59.346;18.058;2023-11-18T09:45:47;3.58;;;2.10;;
51036;SDS011;37064;59.346;18.058;2023-11-18T09:48:14;4.35;;;1.58;;
51036;SDS011;37064;59.346;18.058;2023-11-18T09:50:51;1.48;;;1.10;;
51036;SDS011;37064;59.346;18.058;2023-11-18T09:53:17;2.50;;;0.90;;
51036;SDS011;37064;59.346;18.058;2023-11-18T09:56:02;1.77;;;1.08;;
51036;SDS011;37064;59.346;18.058;2023-11-18T09:58:37;1.67;;;1.02;;
51036;SDS011;37064;59.346;18.058;2023-11-18T10:01:06;2.78;;;1.90;;
51036;SDS011;37064;59.346;18.058;2023-11-18T10:03:38;4.25;;;1.90;;
51036;SDS011;37064;59.346;18.058;2023-11-18T10:06:07;1.65;;;1.17;;
51036;SDS011;37064;59.346;18.058;2023-11-18T10:08:34;2.67;;;1.20;;
51036;SDS011;37064;59.346;18.058;2023-11-18T10:11:03;2.00;;;1.15;;
51036;SDS011;37064;59.346;18.058;2023-11-18T10:13:34;2.47;;;1.42;;
51036;SDS011;37064;59.346;18.058;2023-11-18T10:16:05;3.08;;;1.17;;
51036;SDS011;37064;59.346;18.058;2023-11-18T10:18:31;2.35;;;1.20;;
51036;SDS011;37064;59.346;18.058;2023-11-18T10:21:01;2.10;;;1.40;;
51036;SDS011;37064;59.346;18.058;2023-11-18T10:23:29;2.95;;;1.55;;
51036;SDS011;37064;59.346;18.058;2023-11-18T10:25:59;1.15;;;1.00;;
51036;SDS011;37064;59.346;18.058;2023-11-18T10:28:32;1.63;;;1.00;;
51036;SDS011;37064;59.346;18.058;2023-11-18T10:33:28;3.55;;;1.20;;
51036;SDS011;37064;59.346;18.058;2023-11-18T10:35:58;1.30;;;1.00;;
51036;SDS011;37064;59.346;18.058;2023-11-18T10:38:28;4.00;;;1.17;;
51036;SDS011;37064;59.346;18.058;2023-11-18T10:40:55;2.72;;;1.02;;
51036;SDS011;37064;59.346;18.058;2023-11-18T10:43:21;2.58;;;1.40;;
51036;SDS011;37064;59.346;18.058;2023-11-18T10:46:06;2.13;;;1.15;;
51036;SDS011;37064;59.346;18.058;2023-11-18T10:48:39;4.60;;;1.35;;
51036;SDS011;37064;59.346;18.058;2023-11-18T10:51:11;3.13;;;1.13;;
51036;SDS011;37064;59.346;18.058;2023-11-18T10:53:47;1.98;;;1.30;;
51036;SDS011;37064;59.346;18.058;2023-11-18T10:56:29;1.65;;;1.08;;
51036;SDS011;37064;59.346;18.058;2023-11-18T11:01:28;2.60;;;1.42;;
51036;SDS011;37064;59.346;18.058;2023-11-18T11:03:56;3.47;;;1.40;;
51036;SDS011;37064;59.346;18.058;2023-11-18T11:06:26;1.45;;;1.10;;
51036;SDS011;37064;59.346;18.058;2023-11-18T11:08:55;2.60;;;1.25;;
51036;SDS011;37064;59.346;18.058;2023-11-18T11:11:24;4.80;;;1.65;;
51036;SDS011;37064;59.346;18.058;2023-11-18T11:14:00;2.95;;;1.30;;
51036;SDS011;37064;59.346;18.058;2023-11-18T11:16:33;3.88;;;1.30;;
51036;SDS011;37064;59.346;18.058;2023-11-18T11:19:03;2.15;;;1.50;;
51036;SDS011;37064;59.346;18.058;2023-11-18T11:21:37;2.42;;;1.20;;
51036;SDS011;37064;59.346;18.058;2023-11-18T11:24:06;2.00;;;1.35;;
51036;SDS011;37064;59.346;18.058;2023-11-18T11:26:40;2.47;;;1.17;;
51036;SDS011;37064;59.346;18.058;2023-11-18T11:29:12;1.55;;;1.20;;
51036;SDS011;37064;59.346;18.058;2023-11-18T11:31:40;1.63;;;1.25;;
51036;SDS011;37064;59.346;18.058;2023-11-18T11:34:09;3.30;;;1.70;;
51036;SDS011;37064;59.346;18.058;2023-11-18T11:36:44;2.13;;;1.23;;
51036;SDS011;37064;59.346;18.058;2023-11-18T11:39:11;2.60;;;1.55;;
51036;SDS011;37064;59.346;18.058;2023-11-18T11:41:46;1.83;;;1.30;;
51036;SDS011;37064;59.346;18.058;2023-11-18T11:44:13;1.77;;;1.60;;
51036;SDS011;37064;59.346;18.058;2023-11-18T11:46:39;2.65;;;1.40;;
51036;SDS011;37064;59.346;18.058;2023-11-18T11:49:07;1.90;;;1.20;;
51036;SDS011;37064;59.346;18.058;2023-11-18T11:54:16;1.88;;;1.15;;
51036;SDS011;37064;59.346;18.058;2023-11-18T11:56:45;2.80;;;1.88;;
51036;SDS011;37064;59.346;18.058;2023-11-18T11:59:12;2.25;;;1.13;;
51036;SDS011;37064;59.346;18.058;2023-11-18T12:01:41;1.40;;;1.13;;
51036;SDS011;37064;59.346;18.058;2023-11-18T12:04:12;1.80;;;1.10;;
51036;SDS011;37064;59.346;18.058;2023-11-18T12:06:46;2.10;;;1.40;;
51036;SDS011;37064;59.346;18.058;2023-11-18T12:09:18;3.13;;;1.30;;
51036;SDS011;37064;59.346;18.058;2023-11-18T12:11:48;4.22;;;1.42;;
51036;SDS011;37064;59.346;18.058;2023-11-18T12:19:33;1.80;;;1.20;;
51036;SDS011;37064;59.346;18.058;2023-11-18T12:22:16;4.93;;;1.33;;
51036;SDS011;37064;59.346;18.058;2023-11-18T12:35:39;2.80;;;1.77;;
51036;SDS011;37064;59.346;18.058;2023-11-18T12:38:16;5.55;;;1.77;;
51036;SDS011;37064;59.346;18.058;2023-11-18T12:40:52;2.63;;;1.40;;
51036;SDS011;37064;59.346;18.058;2023-11-18T12:48:44;1.80;;;1.30;;
51036;SDS011;37064;59.346;18.058;2023-11-18T12:51:13;1.67;;;1.45;;
51036;SDS011;37064;59.346;18.058;2023-11-18T12:53:48;5.40;;;1.30;;
51036;SDS011;37064;59.346;18.058;2023-11-18T12:56:16;2.65;;;1.42;;
51036;SDS011;37064;59.346;18.058;2023-11-18T12:58:44;6.40;;;2.90;;
51036;SDS011;37064;59.346;18.058;2023-11-18T13:01:10;3.00;;;1.38;;
51036;SDS011;37064;59.346;18.058;2023-11-18T13:03:39;4.87;;;2.10;;
51036;SDS011;37064;59.346;18.058;2023-11-18T13:06:07;2.28;;;1.50;;
51036;SDS011;37064;59.346;18.058;2023-11-18T13:08:33;2.00;;;1.50;;
51036;SDS011;37064;59.346;18.058;2023-11-18T13:10:59;21.23;;;2.28;;
51036;SDS011;37064;59.346;18.058;2023-11-18T13:13:28;3.83;;;1.20;;
51036;SDS011;37064;59.346;18.058;2023-11-18T13:15:55;2.55;;;1.60;;
51036;SDS011;37064;59.346;18.058;2023-11-18T13:18:21;3.45;;;1.42;;
51036;SDS011;37064;59.346;18.058;2023-11-18T13:20:54;4.20;;;1.63;;
51036;SDS011;37064;59.346;18.058;2023-11-18T13:23:24;6.20;;;2.33;;
51036;SDS011;37064;59.346;18.058;2023-11-18T13:25:50;3.58;;;1.92;;
51036;SDS011;37064;59.346;18.058;2023-11-18T13:28:16;2.00;;;1.60;;
51036;SDS011;37064;59.346;18.058;2023-11-18T13:30:42;2.53;;;1.38;;
51036;SDS011;37064;59.346;18.058;2023-11-18T13:33:10;1.80;;;1.42;;
51036;SDS011;37064;59.346;18.058;2023-11-18T13:35:37;1.83;;;1.17;;
51036;SDS011;37064;59.346;18.058;2023-11-18T13:38:03;2.38;;;1.50;;
51036;SDS011;37064;59.346;18.058;2023-11-18T13:40:44;2.90;;;1.23;;
51036;SDS011;37064;59.346;18.058;2023-11-18T13:43:11;4.07;;;1.70;;
51036;SDS011;37064;59.346;18.058;2023-11-18T13:45:37;4.05;;;1.27;;
51036;SDS011;37064;59.346;18.058;2023-11-18T13:48:04;2.15;;;1.38;;
51036;SDS011;37064;59.346;18.058;2023-11-18T13:50:33;2.38;;;1.30;;
51036;SDS011;37064;59.346;18.058;2023-11-18T13:53:02;2.17;;;1.55;;
51036;SDS011;37064;59.346;18.058;2023-11-18T13:55:28;2.33;;;1.42;;
51036;SDS011;37064;59.346;18.058;2023-11-18T13:57:57;1.70;;;1.23;;
51036;SDS011;37064;59.346;18.058;2023-11-18T14:00:24;2.15;;;1.45;;
51036;SDS011;37064;59.346;18.058;2023-11-18T14:02:52;3.58;;;1.55;;
51036;SDS011;37064;59.346;18.058;2023-11-18T14:05:18;2.75;;;2.10;;
51036;SDS011;37064;59.346;18.058;2023-11-18T14:07:50;2.72;;;1.33;;
51036;SDS011;37064;59.346;18.058;2023-11-18T14:10:17;2.42;;;1.38;;
51036;SDS011;37064;59.346;18.058;2023-11-18T14:13:00;3.53;;;1.98;;
51036;SDS011;37064;59.346;18.058;2023-11-18T14:15:26;1.77;;;1.40;;
51036;SDS011;37064;59.346;18.058;2023-11-18T14:17:52;3.65;;;1.60;;
51036;SDS011;37064;59.346;18.058;2023-11-18T14:20:18;1.92;;;1.45;;
51036;SDS011;37064;59.346;18.058;2023-11-18T14:22:47;2.22;;;1.50;;
51036;SDS011;37064;59.346;18.058;2023-11-18T14:25:13;2.65;;;1.95;;
51036;SDS011;37064;59.346;18.058;2023-11-18T14:27:39;2.20;;;1.35;;
51036;SDS011;37064;59.346;18.058;2023-11-18T14:30:06;3.17;;;1.23;;
51036;SDS011;37064;59.346;18.058;2023-11-18T14:32:34;1.55;;;1.30;;
51036;SDS011;37064;59.346;18.058;2023-11-18T14:35:00;1.95;;;1.15;;
51036;SDS011;37064;59.346;18.058;2023-11-18T14:37:26;2.17;;;1.27;;
51036;SDS011;37064;59.346;18.058;2023-11-18T14:39:52;3.15;;;1.63;;
51036;SDS011;37064;59.346;18.058;2023-11-18T14:42:21;2.03;;;1.70;;
51036;SDS011;37064;59.346;18.058;2023-11-18T14:44:48;2.10;;;1.42;;
51036;SDS011;37064;59.346;18.058;2023-11-18T14:47:14;2.08;;;1.42;;
51036;SDS011;37064;59.346;18.058;2023-11-18T14:49:41;2.90;;;1.55;;
51036;SDS011;37064;59.346;18.058;2023-11-18T14:52:07;2.92;;;1.70;;
51036;SDS011;37064;59.346;18.058;2023-11-18T14:54:34;2.67;;;1.80;;
51036;SDS011;37064;59.346;18.058;2023-11-18T14:57:01;2.03;;;1.50;;
51036;SDS011;37064;59.346;18.058;2023-11-18T14:59:28;4.43;;;1.70;;
51036;SDS011;37064;59.346;18.058;2023-11-18T15:01:54;4.07;;;1.38;;
51036;SDS011;37064;59.346;18.058;2023-11-18T15:04:22;3.17;;;1.55;;
51036;SDS011;37064;59.346;18.058;2023-11-18T15:06:49;2.40;;;1.58;;
51036;SDS011;37064;59.346;18.058;2023-11-18T15:09:17;3.22;;;1.67;;
51036;SDS011;37064;59.346;18.058;2023-11-18T15:11:45;2.13;;;1.63;;
51036;SDS011;37064;59.346;18.058;2023-11-18T15:16:41;2.80;;;1.80;;
51036;SDS011;37064;59.346;18.058;2023-11-18T15:19:07;2.22;;;1.52;;
51036;SDS011;37064;59.346;18.058;2023-11-18T15:21:33;2.85;;;2.55;;